sensor_id;sensor_type;location;lat;lon;timestamp;P1;durP1;ratioP1;P2;durP2;ratioP2
2928;SDS011;1474;51.460;7.150;2023-10-09T08:53:16;12.80;;;6.50;;
2928;SDS011;1474;51.460;7.150;2023-10-09T09:01:21;9.57;;;6.00;;
2928;SDS011;1474;51.460;7.150;2023-10-09T09:09:32;10.02;;;6.03;;
2928;SDS011;1474;51.460;7.150;2023-10-09T09:45:40;13.69;;;7.91;;
2928;SDS011;1474;51.460;7.150;2023-10-09T09:56:01;10.50;;;5.97;;
2928;SDS011;1474;51.460;7.150;2023-10-09T10:00:25;11.70;;;6.57;;
2928;SDS011;1474;51.460;7.150;2023-10-09T10:07:27;11.00;;;5.70;;
2928;SDS011;1474;51.460;7.150;2023-10-09T10:17:04;8.63;;;5.68;;
2928;SDS011;1474;51.460;7.150;2023-10-09T10:20:02;10.98;;;5.70;;
2928;SDS011;1474;51.460;7.150;2023-10-09T10:22:43;10.00;;;5.53;;
2928;SDS011;1474;51.460;7.150;2023-10-09T10:35:08;7.68;;;5.13;;
2928;SDS011;1474;51.460;7.150;2023-10-09T10:41:24;9.00;;;6.05;;
2928;SDS011;1474;51.460;7.150;2023-10-09T10:45:01;10.43;;;6.45;;
2928;SDS011;1474;51.460;7.150;2023-10-09T10:47:58;10.05;;;6.07;;
2928;SDS011;1474;51.460;7.150;2023-10-09T10:50:32;7.63;;;5.22;;
2928;SDS011;1474;51.460;7.150;2023-10-09T10:53:17;10.20;;;5.80;;
2928;SDS011;1474;51.460;7.150;2023-10-09T10:55:54;9.00;;;5.57;;
2928;SDS011;1474;51.460;7.150;2023-10-09T10:58:39;7.93;;;4.93;;
2928;SDS011;1474;51.460;7.150;2023-10-09T11:01:56;9.73;;;5.50;;
2928;SDS011;1474;51.460;7.150;2023-10-09T11:05:25;8.95;;;5.93;;
2928;SDS011;1474;51.460;7.150;2023-10-09T11:08:46;13.52;;;6.30;;
2928;SDS011;1474;51.460;7.150;2023-10-09T11:16:19;12.25;;;5.57;;
2928;SDS011;1474;51.460;7.150;2023-10-09T11:20:04;8.43;;;6.05;;
2928;SDS011;1474;51.460;7.150;2023-10-09T11:23:14;8.55;;;4.80;;
2928;SDS011;1474;51.460;7.150;2023-10-09T11:26:55;9.02;;;5.53;;
2928;SDS011;1474;51.460;7.150;2023-10-09T11:29:51;10.25;;;5.10;;
2928;SDS011;1474;51.460;7.150;2023-10-09T11:32:49;8.85;;;5.20;;
2928;SDS011;1474;51.460;7.150;2023-10-09T11:36:01;8.38;;;5.18;;
2928;SDS011;1474;51.460;7.150;2023-10-09T11:39:12;13.13;;;6.03;;
2928;SDS011;1474;51.460;7.150;2023-10-09T11:42:18;8.80;;;5.15;;
2928;SDS011;1474;51.460;7.150;2023-10-09T11:45:21;8.18;;;5.97;;
2928;SDS011;1474;51.460;7.150;2023-10-09T11:48:22;11.98;;;5.38;;
2928;SDS011;1474;51.460;7.150;2023-10-09T11:51:25;9.45;;;5.53;;
2928;SDS011;1474;51.460;7.150;2023-10-09T11:57:05;9.45;;;6.47;;
2928;SDS011;1474;51.460;7.150;2023-10-09T11:59:35;10.30;;;5.88;;
2928;SDS011;1474;51.460;7.150;2023-10-09T12:02:26;9.27;;;5.90;;
2928;SDS011;1474;51.460;7.150;2023-10-09T12:04:57;11.00;;;6.32;;
2928;SDS011;1474;51.460;7.150;2023-10-09T12:07:44;10.48;;;5.15;;
2928;SDS011;1474;51.460;7.150;2023-10-09T12:10:12;10.07;;;6.10;;
2928;SDS011;1474;51.460;7.150;2023-10-09T12:12:43;9.10;;;5.60;;
2928;SDS011;1474;51.460;7.150;2023-10-09T12:15:12;10.70;;;5.78;;
2928;SDS011;1474;51.460;7.150;2023-10-09T12:17:43;10.00;;;5.65;;
2928;SDS011;1474;51.460;7.150;2023-10-09T12:20:15;7.25;;;5.63;;
2928;SDS011;1474;51.460;7.150;2023-10-09T12:23:02;10.63;;;6.20;;
2928;SDS011;1474;51.460;7.150;2023-10-09T12:25:32;9.60;;;5.45;;
2928;SDS011;1474;51.460;7.150;2023-10-09T12:28:02;9.82;;;5.75;;
2928;SDS011;1474;51.460;7.150;2023-10-09T12:30:29;9.50;;;6.15;;
2928;SDS011;1474;51.460;7.150;2023-10-09T12:32:56;11.98;;;5.65;;
2928;SDS011;1474;51.460;7.150;2023-10-09T12:35:24;11.55;;;5.78;;
2928;SDS011;1474;51.460;7.150;2023-10-09T12:37:51;9.90;;;5.65;;
2928;SDS011;1474;51.460;7.150;2023-10-09T12:40:20;10.43;;;5.78;;
2928;SDS011;1474;51.460;7.150;2023-10-09T12:42:56;9.82;;;6.07;;
2928;SDS011;1474;51.460;7.150;2023-10-09T12:45:25;9.90;;;5.97;;
2928;SDS011;1474;51.460;7.150;2023-10-09T12:47:55;9.43;;;5.88;;
2928;SDS011;1474;51.460;7.150;2023-10-09T12:50:32;11.75;;;6.95;;
2928;SDS011;1474;51.460;7.150;2023-10-09T12:53:11;10.80;;;6.22;;
2928;SDS011;1474;51.460;7.150;2023-10-09T12:58:37;9.52;;;5.25;;
2928;SDS011;1474;51.460;7.150;2023-10-09T13:01:04;11.23;;;5.95;;
2928;SDS011;1474;51.460;7.150;2023-10-09T13:03:42;8.35;;;5.88;;
2928;SDS011;1474;51.460;7.150;2023-10-09T13:09:12;12.35;;;6.50;;
2928;SDS011;1474;51.460;7.150;2023-10-09T13:11:59;8.10;;;6.07;;
2928;SDS011;1474;51.460;7.150;2023-10-09T13:14:37;9.80;;;5.28;;
2928;SDS011;1474;51.460;7.150;2023-10-09T13:17:15;9.85;;;5.22;;
2928;SDS011;1474;51.460;7.150;2023-10-09T13:19:44;9.73;;;6.18;;
2928;SDS011;1474;51.460;7.150;2023-10-09T13:22:10;10.77;;;5.65;;
2928;SDS011;1474;51.460;7.150;2023-10-09T13:24:47;10.82;;;6.68;;
2928;SDS011;1474;51.460;7.150;2023-10-09T13:27:29;10.02;;;5.65;;
2928;SDS011;1474;51.460;7.150;2023-10-09T13:29:59;9.82;;;6.03;;
2928;SDS011;1474;51.460;7.150;2023-10-09T13:32:31;10.10;;;6.80;;
2928;SDS011;1474;51.460;7.150;2023-10-09T13:35:10;10.32;;;5.30;;
2928;SDS011;1474;51.460;7.150;2023-10-09T13:37:39;9.98;;;6.05;;
2928;SDS011;1474;51.460;7.150;2023-10-09T13:40:05;11.48;;;5.78;;
2928;SDS011;1474;51.460;7.150;2023-10-09T13:42:36;10.75;;;6.30;;
2928;SDS011;1474;51.460;7.150;2023-10-09T13:45:03;9.45;;;6.55;;
2928;SDS011;1474;51.460;7.150;2023-10-09T13:47:41;11.40;;;7.03;;
2928;SDS011;1474;51.460;7.150;2023-10-09T13:50:10;11.43;;;7.35;;
2928;SDS011;1474;51.460;7.150;2023-10-09T13:52:41;9.38;;;5.78;;
2928;SDS011;1474;51.460;7.150;2023-10-09T13:55:08;9.10;;;6.85;;
2928;SDS011;1474;51.460;7.150;2023-10-09T13:57:41;9.32;;;6.82;;
2928;SDS011;1474;51.460;7.150;2023-10-09T14:00:11;15.27;;;6.70;;
2928;SDS011;1474;51.460;7.150;2023-10-09T14:02:47;12.23;;;6.60;;
2928;SDS011;1474;51.460;7.150;2023-10-09T14:05:16;11.67;;;7.70;;
2928;SDS011;1474;51.460;7.150;2023-10-09T14:07:42;7.93;;;6.22;;
2928;SDS011;1474;51.460;7.150;2023-10-09T14:10:11;13.55;;;7.07;;
2928;SDS011;1474;51.460;7.150;2023-10-09T14:12:45;11.48;;;7.60;;
2928;SDS011;1474;51.460;7.150;2023-10-09T14:15:11;12.50;;;7.68;;
2928;SDS011;1474;51.460;7.150;2023-10-09T14:17:42;10.60;;;6.65;;
2928;SDS011;1474;51.460;7.150;2023-10-09T14:20:21;12.73;;;7.43;;
2928;SDS011;1474;51.460;7.150;2023-10-09T14:23:02;12.60;;;7.78;;
2928;SDS011;1474;51.460;7.150;2023-10-09T14:25:35;10.48;;;7.45;;
2928;SDS011;1474;51.460;7.150;2023-10-09T14:28:10;15.15;;;7.40;;
2928;SDS011;1474;51.460;7.150;2023-10-09T14:30:46;10.15;;;7.25;;
2928;SDS011;1474;51.460;7.150;2023-10-09T14:33:21;14.95;;;7.35;;
2928;SDS011;1474;51.460;7.150;2023-10-09T14:36:01;19.52;;;7.55;;
2928;SDS011;1474;51.460;7.150;2023-10-09T14:38:30;11.68;;;6.63;;
2928;SDS011;1474;51.460;7.150;2023-10-09T14:41:01;9.82;;;6.85;;
2928;SDS011;1474;51.460;7.150;2023-10-09T14:43:35;11.23;;;7.57;;
2928;SDS011;1474;51.460;7.150;2023-10-09T14:46:05;15.77;;;7.53;;
2928;SDS011;1474;51.460;7.150;2023-10-09T14:48:39;14.38;;;8.23;;
2928;SDS011;1474;51.460;7.150;2023-10-09T14:51:06;13.00;;;7.57;;
2928;SDS011;1474;51.460;7.150;2023-10-09T14:53:56;14.07;;;7.40;;
2928;SDS011;1474;51.460;7.150;2023-10-09T14:56:23;11.20;;;6.85;;
2928;SDS011;1474;51.460;7.150;2023-10-09T14:58:56;11.98;;;7.88;;
2928;SDS011;1474;51.460;7.150;2023-10-09T15:01:30;13.35;;;8.27;;
2928;SDS011;1474;51.460;7.150;2023-10-09T15:03:58;12.05;;;7.07;;
2928;SDS011;1474;51.460;7.150;2023-10-09T15:06:28;12.68;;;7.45;;
2928;SDS011;1474;51.460;7.150;2023-10-09T15:08:58;12.88;;;6.43;;
2928;SDS011;1474;51.460;7.150;2023-10-09T15:11:33;11.07;;;6.25;;
2928;SDS011;1474;51.460;7.150;2023-10-09T15:14:02;10.02;;;6.35;;
2928;SDS011;1474;51.460;7.150;2023-10-09T15:16:33;11.38;;;6.85;;
2928;SDS011;1474;51.460;7.150;2023-10-09T15:19:20;13.65;;;8.05;;
2928;SDS011;1474;51.460;7.150;2023-10-09T15:21:55;11.13;;;6.85;;
2928;SDS011;1474;51.460;7.150;2023-10-09T15:24:26;14.02;;;7.68;;
2928;SDS011;1474;51.460;7.150;2023-10-09T15:26:56;14.07;;;7.50;;
2928;SDS011;1474;51.460;7.150;2023-10-09T15:29:25;11.25;;;7.50;;
2928;SDS011;1474;51.460;7.150;2023-10-09T15:31:59;12.45;;;7.68;;
2928;SDS011;1474;51.460;7.150;2023-10-09T15:34:40;12.55;;;8.07;;
2928;SDS011;1474;51.460;7.150;2023-10-09T15:37:07;11.32;;;7.28;;
2928;SDS011;1474;51.460;7.150;2023-10-09T15:39:36;13.07;;;8.05;;
2928;SDS011;1474;51.460;7.150;2023-10-09T15:42:02;12.23;;;8.32;;
2928;SDS011;1474;51.460;7.150;2023-10-09T15:44:35;13.23;;;8.43;;
2928;SDS011;1474;51.460;7.150;2023-10-09T15:47:04;11.35;;;7.57;;
2928;SDS011;1474;51.460;7.150;2023-10-09T15:49:34;11.70;;;7.90;;
2928;SDS011;1474;51.460;7.150;2023-10-09T15:52:06;10.88;;;7.38;;
2928;SDS011;1474;51.460;7.150;2023-10-09T15:54:46;10.65;;;6.43;;
2928;SDS011;1474;51.460;7.150;2023-10-09T15:57:40;10.40;;;6.40;;
2928;SDS011;1474;51.460;7.150;2023-10-09T16:00:09;10.65;;;7.07;;
2928;SDS011;1474;51.460;7.150;2023-10-09T16:02:59;12.13;;;7.18;;
2928;SDS011;1474;51.460;7.150;2023-10-09T16:05:26;12.80;;;6.95;;
2928;SDS011;1474;51.460;7.150;2023-10-09T16:08:01;12.00;;;7.07;;
2928;SDS011;1474;51.460;7.150;2023-10-09T16:10:30;11.88;;;7.53;;
2928;SDS011;1474;51.460;7.150;2023-10-09T16:12:56;12.27;;;7.88;;
2928;SDS011;1474;51.460;7.150;2023-10-09T16:15:23;11.23;;;7.97;;
2928;SDS011;1474;51.460;7.150;2023-10-09T16:17:50;13.05;;;8.80;;
2928;SDS011;1474;51.460;7.150;2023-10-09T16:20:28;12.65;;;7.95;;
2928;SDS011;1474;51.460;7.150;2023-10-09T16:22:57;16.60;;;8.48;;
2928;SDS011;1474;51.460;7.150;2023-10-09T16:25:24;12.10;;;7.93;;
2928;SDS011;1474;51.460;7.150;2023-10-09T16:27:52;10.73;;;7.35;;
2928;SDS011;1474;51.460;7.150;2023-10-09T16:30:20;14.70;;;7.53;;
2928;SDS011;1474;51.460;7.150;2023-10-09T16:32:47;12.50;;;8.50;;
2928;SDS011;1474;51.460;7.150;2023-10-09T16:35:15;12.60;;;8.43;;
2928;SDS011;1474;51.460;7.150;2023-10-09T16:37:42;18.58;;;8.63;;
2928;SDS011;1474;51.460;7.150;2023-10-09T16:40:08;15.98;;;8.27;;
2928;SDS011;1474;51.460;7.150;2023-10-09T16:42:38;15.15;;;8.85;;
2928;SDS011;1474;51.460;7.150;2023-10-09T16:45:06;13.68;;;9.10;;
2928;SDS011;1474;51.460;7.150;2023-10-09T16:47:41;14.00;;;7.78;;
2928;SDS011;1474;51.460;7.150;2023-10-09T16:50:13;11.80;;;7.82;;
2928;SDS011;1474;51.460;7.150;2023-10-09T16:52:43;14.52;;;8.43;;
2928;SDS011;1474;51.460;7.150;2023-10-09T16:55:10;13.43;;;8.07;;
2928;SDS011;1474;51.460;7.150;2023-10-09T16:57:37;10.70;;;7.70;;
2928;SDS011;1474;51.460;7.150;2023-10-09T17:00:09;12.77;;;7.90;;
2928;SDS011;1474;51.460;7.150;2023-10-09T17:02:55;10.52;;;8.05;;
2928;SDS011;1474;51.460;7.150;2023-10-09T17:05:21;12.93;;;8.57;;
2928;SDS011;1474;51.460;7.150;2023-10-09T17:07:58;14.98;;;8.77;;
2928;SDS011;1474;51.460;7.150;2023-10-09T17:10:25;14.40;;;9.05;;
2928;SDS011;1474;51.460;7.150;2023-10-09T17:12:52;12.45;;;8.20;;
2928;SDS011;1474;51.460;7.150;2023-10-09T17:15:19;12.25;;;8.32;;
2928;SDS011;1474;51.460;7.150;2023-10-09T17:17:49;15.27;;;8.85;;
2928;SDS011;1474;51.460;7.150;2023-10-09T17:20:15;12.88;;;8.25;;
2928;SDS011;1474;51.460;7.150;2023-10-09T17:22:43;14.50;;;8.23;;
2928;SDS011;1474;51.460;7.150;2023-10-09T17:25:16;12.10;;;8.18;;
2928;SDS011;1474;51.460;7.150;2023-10-09T17:27:45;11.43;;;8.57;;
2928;SDS011;1474;51.460;7.150;2023-10-09T17:30:11;13.30;;;8.88;;
2928;SDS011;1474;51.460;7.150;2023-10-09T17:32:44;11.82;;;7.95;;
2928;SDS011;1474;51.460;7.150;2023-10-09T17:35:11;14.85;;;8.32;;
2928;SDS011;1474;51.460;7.150;2023-10-09T17:37:37;15.00;;;8.45;;
2928;SDS011;1474;51.460;7.150;2023-10-09T17:40:06;15.05;;;9.63;;
2928;SDS011;1474;51.460;7.150;2023-10-09T17:42:37;14.80;;;8.48;;
2928;SDS011;1474;51.460;7.150;2023-10-09T17:45:15;14.73;;;8.95;;
2928;SDS011;1474;51.460;7.150;2023-10-09T17:47:47;13.98;;;9.70;;
2928;SDS011;1474;51.460;7.150;2023-10-09T17:50:18;13.93;;;9.27;;
2928;SDS011;1474;51.460;7.150;2023-10-09T17:53:13;17.17;;;9.38;;
2928;SDS011;1474;51.460;7.150;2023-10-09T17:58:25;12.00;;;8.43;;
2928;SDS011;1474;51.460;7.150;2023-10-09T18:00:54;12.40;;;8.73;;
2928;SDS011;1474;51.460;7.150;2023-10-09T18:03:28;14.70;;;8.88;;
2928;SDS011;1474;51.460;7.150;2023-10-09T18:06:02;16.90;;;9.20;;
2928;SDS011;1474;51.460;7.150;2023-10-09T18:08:32;15.80;;;10.30;;
2928;SDS011;1474;51.460;7.150;2023-10-09T18:11:01;14.43;;;8.07;;
2928;SDS011;1474;51.460;7.150;2023-10-09T19:53:21;16.95;;;10.18;;
2928;SDS011;1474;51.460;7.150;2023-10-09T20:10:47;13.82;;;10.00;;
2928;SDS011;1474;51.460;7.150;2023-10-09T20:14:02;15.30;;;9.95;;
2928;SDS011;1474;51.460;7.150;2023-10-09T20:17:24;14.13;;;10.10;;
2928;SDS011;1474;51.460;7.150;2023-10-09T20:21:03;15.10;;;10.13;;
2928;SDS011;1474;51.460;7.150;2023-10-09T20:29:17;16.58;;;10.95;;
2928;SDS011;1474;51.460;7.150;2023-10-09T20:32:40;16.02;;;11.32;;
2928;SDS011;1474;51.460;7.150;2023-10-09T21:15:08;18.60;;;11.70;;
2928;SDS011;1474;51.460;7.150;2023-10-09T21:18:23;17.65;;;11.15;;
2928;SDS011;1474;51.460;7.150;2023-10-09T21:21:04;17.30;;;10.35;;
2928;SDS011;1474;51.460;7.150;2023-10-09T21:23:42;20.42;;;12.57;;
2928;SDS011;1474;51.460;7.150;2023-10-09T21:26:56;19.08;;;12.05;;
2928;SDS011;1474;51.460;7.150;2023-10-09T21:29:47;17.52;;;11.38;;
2928;SDS011;1474;51.460;7.150;2023-10-09T23:10:26;22.13;;;13.63;;
